»·PEaware :: N2009X KSNA-KCMA

N2009X :: KSNA-KCMA

FLIGHT INFORMATION

Flight Status: Arrived
Operator: Privately registered:
United States
More flights under this callsign
Pilot: Ryan L. (18770)
Aircraft: PIPER PA-44 SEMINOLE
(PA44)
More flights by this aircraft type
Origin: KSNA John Wayne-Orange Co
United States
Destination: KCMA Camarillo
United States
More flights between these airports :: More routes between these airports
Route: +
File this flight plan on PilotEdge
Remarks: NFF E
Altitude:
(Current/Filed)
0ft
Speed:
(Current/Filed)
0kts
Departed: 10-Oct-18 08:53 PM
Arrived: 10-Oct-18 09:30 PM
Distance/Time
Traveled:
69nm/0:37
Distance/Time
To Go:
Arrived

Flight Plot

Page will automatically refresh every two minutes.


Map Options




Map Legend


Flown Route
Filed Route
Departure Airport
Arrival Airport
Navaid (VOR, NDB)
Fix

Horizontal Profiles

Position Reports

Time Latitude Longitude Heading Altitude Ground
Speed
10-Oct-18 20:40 33.668090 -117.871021 221 61ft 0kts
10-Oct-18 20:41 33.668090 -117.871021 221 61ft 0kts
10-Oct-18 20:42 33.668090 -117.871021 221 61ft 0kts
10-Oct-18 20:43 33.668090 -117.871021 221 61ft 0kts
10-Oct-18 20:44 33.668090 -117.871021 221 61ft 0kts
10-Oct-18 20:45 33.668090 -117.871021 221 61ft 0kts
10-Oct-18 20:46 33.668090 -117.871021 221 61ft 0kts
10-Oct-18 20:47 33.668090 -117.871021 221 61ft 0kts
10-Oct-18 20:48 33.672332 -117.867975 27 61ft 26kts
10-Oct-18 20:49 33.677100 -117.865174 28 61ft 31kts
10-Oct-18 20:50 33.679879 -117.863506 336 61ft 0kts
10-Oct-18 20:51 33.679991 -117.863669 296 61ft 3kts
10-Oct-18 20:52 33.680009 -117.864236 207 61ft 2kts
10-Oct-18 20:53 33.680007 -117.864237 207 61ft 0kts
10-Oct-18 20:54 33.680007 -117.864237 207 61ft 0kts
10-Oct-18 20:55 33.663632 -117.882347 250 784ft 135kts
10-Oct-18 20:56 33.648188 -117.936905 251 1982ft 158kts
10-Oct-18 20:57 33.635625 -117.981502 251 2006ft 169kts
10-Oct-18 20:58 33.621858 -118.030556 253 2592ft 140kts
10-Oct-18 20:59 33.610745 -118.072537 252 3808ft 131kts
10-Oct-18 21:00 33.599247 -118.115880 252 4510ft 157kts
10-Oct-18 21:01 33.601495 -118.179855 292 4495ft 174kts
10-Oct-18 21:02 33.633722 -118.206830 330 4506ft 169kts
10-Oct-18 21:03 33.673666 -118.233478 331 4509ft 176kts
10-Oct-18 21:04 33.709186 -118.257004 331 4503ft 123kts
10-Oct-18 21:05 33.740972 -118.272120 343 4508ft 137kts
10-Oct-18 21:06 33.781993 -118.292094 334 4507ft 139kts
10-Oct-18 21:07 33.811377 -118.308593 333 4507ft 140kts
10-Oct-18 21:08 33.845440 -118.331073 329 4507ft 141kts
10-Oct-18 21:09 33.878120 -118.354817 328 4507ft 139kts
10-Oct-18 21:10 33.910570 -118.379343 327 4507ft 139kts
10-Oct-18 21:11 33.942123 -118.403592 327 4507ft 139kts
10-Oct-18 21:12 33.979991 -118.432928 327 4507ft 139kts
10-Oct-18 21:13 34.010088 -118.461152 288 4503ft 139kts
10-Oct-18 21:14 34.018076 -118.507760 281 4513ft 166kts
10-Oct-18 21:15 34.025890 -118.554765 281 4507ft 181kts
10-Oct-18 21:16 34.034738 -118.609377 279 4499ft 136kts
10-Oct-18 21:17 34.036837 -118.649977 267 4509ft 122kts
10-Oct-18 21:18 34.037913 -118.692965 273 4508ft 135kts
10-Oct-18 21:19 34.039974 -118.738435 266 4506ft 136kts
10-Oct-18 21:20 34.036675 -118.776226 264 4507ft 98kts
10-Oct-18 21:21 34.044355 -118.818502 286 4512ft 166kts
10-Oct-18 21:22 34.057979 -118.873013 286 4507ft 171kts
10-Oct-18 21:23 34.071781 -118.928326 286 4507ft 172kts
10-Oct-18 21:24 34.085576 -118.983727 286 4507ft 172kts
10-Oct-18 21:25 34.120781 -119.026188 322 4095ft 185kts
10-Oct-18 21:26 34.151594 -119.054765 322 3231ft 145kts
10-Oct-18 21:27 34.177919 -119.080114 318 2050ft 113kts
10-Oct-18 21:28 34.195767 -119.099699 40 1194ft 82kts
10-Oct-18 21:29 34.196883 -119.075333 92 1193ft 84kts
10-Oct-18 21:30 34.209989 -119.059625 330 838ft 82kts
10-Oct-18 21:31 34.213639 -119.082956 270 117ft 66kts
10-Oct-18 21:32 34.213011 -119.095546 205 79ft 0kts
10-Oct-18 21:33 34.210805 -119.094447 142 79ft 14kts
10-Oct-18 21:34 34.210670 -119.094028 1 79ft 0kts
10-Oct-18 21:35 34.210670 -119.094028 1 79ft 0kts
10-Oct-18 21:36 34.210670 -119.094028 1 79ft 0kts
10-Oct-18 21:37 34.210670 -119.094028 1 79ft 0kts
10-Oct-18 21:38 34.210670 -119.094028 1 79ft 0kts
10-Oct-18 21:39 34.210670 -119.094028 1 79ft 0kts
10-Oct-18 21:40 34.210670 -119.094028 1 79ft 0kts
10-Oct-18 21:41 34.210670 -119.094028 1 79ft 0kts
10-Oct-18 21:42 34.210670 -119.094028 1 79ft 0kts
10-Oct-18 21:43 34.210670 -119.094028 1 79ft 0kts
10-Oct-18 21:44 34.210670 -119.094028 1 79ft 0kts
10-Oct-18 21:45 34.210670 -119.094028 1 79ft 0kts

Navigation Log

Ident Type
1. KSNA Airport
2. KCMA Airport